Time;durP1;ratioP1;P1;durP2;ratioP2;P2;SDS_P1;SDS_P2;PMS_P1;PMS_P2;Temp;Humidity;BMP_temperature;BMP_pressure;BME280_temperature;BME280_humidity;BME280_pressure;Samples;Min_cycle;Max_cycle;Signal;HPM_P1;HPM_P2
2022/12/16 00:01:35;;;;;;;18.13;11.23;;;;;;;;;;5069356;28;20229;-81
2022/12/16 00:04:02;;;;;;;19.53;12.77;;;;;;;;;;5070210;28;20197;-81
2022/12/16 00:06:30;;;;;;;22.23;12.73;;;;;;;;;;5069604;28;20238;-81
2022/12/16 00:08:59;;;;;;;20.43;12.27;;;;;;;;;;5070006;28;20704;-82
2022/12/16 00:11:26;;;;;;;21.87;11.97;;;;;;;;;;5069684;28;20243;-81
2022/12/16 00:13:53;;;;;;;22.67;12.23;;;;;;;;;;5070514;28;20210;-81
2022/12/16 00:16:21;;;;;;;19.97;11.67;;;;;;;;;;5069911;28;20245;-81
2022/12/16 00:18:48;;;;;;;22.53;11.53;;;;;;;;;;5070158;28;20225;-81
2022/12/16 00:21:17;;;;;;;23.20;12.13;;;;;;;;;;5069574;28;20240;-81
2022/12/16 00:23:44;;;;;;;25.37;12.80;;;;;;;;;;5070296;28;20742;-82
2022/12/16 00:26:13;;;;;;;25.20;13.60;;;;;;;;;;5069408;28;20269;-81
2022/12/16 00:28:42;;;;;;;22.70;12.53;;;;;;;;;;5072137;28;20288;-81
2022/12/16 00:31:09;;;;;;;20.27;11.40;;;;;;;;;;5073078;28;20308;-81
2022/12/16 00:33:36;;;;;;;18.80;11.43;;;;;;;;;;5073849;28;20232;-81
2022/12/16 00:36:03;;;;;;;22.93;12.87;;;;;;;;;;5073110;28;20241;-81
2022/12/16 00:38:31;;;;;;;18.60;11.37;;;;;;;;;;5073555;28;20217;-81
2022/12/16 00:40:58;;;;;;;22.93;12.47;;;;;;;;;;5073274;28;20230;-81
2022/12/16 00:43:26;;;;;;;19.20;12.13;;;;;;;;;;5072986;28;20205;-81
2022/12/16 00:45:53;;;;;;;21.77;11.60;;;;;;;;;;5073270;28;20797;-81
2022/12/16 00:48:22;;;;;;;22.87;12.20;;;;;;;;;;5073393;28;20213;-82
2022/12/16 00:50:50;;;;;;;21.87;12.37;;;;;;;;;;5073049;28;20238;-81
2022/12/16 00:53:17;;;;;;;22.43;11.20;;;;;;;;;;5072613;28;20713;-81
2022/12/16 00:55:45;;;;;;;20.40;11.47;;;;;;;;;;5072739;28;20241;-81
2022/12/16 00:58:12;;;;;;;22.40;12.83;;;;;;;;;;5078608;28;20190;-81
2022/12/16 01:00:41;;;;;;;23.87;13.47;;;;;;;;;;5075326;28;20259;-80
2022/12/16 01:03:08;;;;;;;18.23;11.83;;;;;;;;;;5076504;28;20208;-81
2022/12/16 01:05:38;;;;;;;19.60;12.17;;;;;;;;;;5073040;28;20233;-81
2022/12/16 01:08:05;;;;;;;18.10;11.93;;;;;;;;;;5072929;28;20300;-81
2022/12/16 01:10:32;;;;;;;23.17;12.50;;;;;;;;;;5072324;28;20229;-81
2022/12/16 01:12:59;;;;;;;19.03;11.07;;;;;;;;;;5072446;28;20228;-81
2022/12/16 01:15:26;;;;;;;16.10;10.70;;;;;;;;;;5072475;28;20233;-81
2022/12/16 01:17:54;;;;;;;18.93;11.40;;;;;;;;;;5072735;28;20217;-81
2022/12/16 01:20:21;;;;;;;24.80;12.70;;;;;;;;;;5071995;28;20197;-81
2022/12/16 01:22:48;;;;;;;19.83;10.87;;;;;;;;;;5072778;28;20209;-81
2022/12/16 01:25:16;;;;;;;19.50;10.93;;;;;;;;;;5072160;28;20206;-81
2022/12/16 01:27:43;;;;;;;20.77;10.97;;;;;;;;;;5072362;28;20232;-81
2022/12/16 01:30:11;;;;;;;20.70;11.90;;;;;;;;;;5071990;28;20213;-80
2022/12/16 01:32:38;;;;;;;23.17;12.40;;;;;;;;;;5072224;28;20229;-81
2022/12/16 01:35:07;;;;;;;20.73;11.33;;;;;;;;;;5072058;28;20216;-80
2022/12/16 01:37:34;;;;;;;21.23;12.07;;;;;;;;;;5071738;28;20217;-81
2022/12/16 01:40:01;;;;;;;18.70;11.20;;;;;;;;;;5071644;28;20213;-81
2022/12/16 01:42:30;;;;;;;19.97;11.87;;;;;;;;;;5071421;28;20229;-81
2022/12/16 01:44:57;;;;;;;18.63;10.47;;;;;;;;;;5072125;28;20275;-81
2022/12/16 01:47:26;;;;;;;20.33;11.23;;;;;;;;;;5071323;28;20279;-81
2022/12/16 01:49:56;;;;;;;17.27;10.80;;;;;;;;;;5072283;28;20232;-81
2022/12/16 01:52:26;;;;;;;19.93;11.87;;;;;;;;;;5071438;28;20655;-81
2022/12/16 01:54:56;;;;;;;22.27;12.23;;;;;;;;;;5071963;28;20697;-81
2022/12/16 01:57:27;;;;;;;18.40;9.97;;;;;;;;;;5071231;28;20240;-81
2022/12/16 01:59:55;;;;;;;27.53;12.77;;;;;;;;;;5070855;28;20205;-81
2022/12/16 02:02:22;;;;;;;23.03;11.90;;;;;;;;;;5069483;28;20594;-81
2022/12/16 02:07:32;;;;;;;19.13;12.07;;;;;;;;;;5055819;28;20249;-81
2022/12/16 02:09:59;;;;;;;24.10;11.40;;;;;;;;;;5072323;28;20217;-81
2022/12/16 02:12:29;;;;;;;22.57;11.40;;;;;;;;;;5052268;28;20244;-81
2022/12/16 02:15:10;;;;;;;21.63;11.10;;;;;;;;;;5033200;28;20237;-80
2022/12/16 02:17:42;;;;;;;19.93;11.67;;;;;;;;;;5030647;28;20230;-81
2022/12/16 02:20:36;;;;;;;19.13;11.20;;;;;;;;;;5032437;28;20206;-81
2022/12/16 02:23:14;;;;;;;15.43;9.97;;;;;;;;;;4997267;28;20218;-80
2022/12/16 02:25:48;;;;;;;17.37;10.80;;;;;;;;;;5041004;28;20230;-80
2022/12/16 02:28:19;;;;;;;16.70;9.70;;;;;;;;;;5052465;28;20191;-81
2022/12/16 02:30:54;;;;;;;18.10;12.07;;;;;;;;;;5051860;28;20718;-81
2022/12/16 02:33:26;;;;;;;23.60;10.43;;;;;;;;;;5052266;28;20214;-81
2022/12/16 02:35:56;;;;;;;20.57;10.50;;;;;;;;;;5052041;28;20241;-81
2022/12/16 02:38:27;;;;;;;24.80;11.13;;;;;;;;;;5052121;28;20570;-80
2022/12/16 02:40:56;;;;;;;23.67;10.67;;;;;;;;;;5051948;28;20360;-80
2022/12/16 02:43:31;;;;;;;18.20;10.23;;;;;;;;;;5051985;28;20206;-81
2022/12/16 02:46:00;;;;;;;14.70;9.70;;;;;;;;;;5059274;28;20251;-81
2022/12/16 02:48:27;;;;;;;19.70;11.13;;;;;;;;;;5071884;28;20205;-81
2022/12/16 02:50:54;;;;;;;19.00;10.53;;;;;;;;;;5071308;28;20237;-81
2022/12/16 02:53:21;;;;;;;23.77;10.73;;;;;;;;;;5071813;28;20312;-80
2022/12/16 02:55:54;;;;;;;20.03;12.13;;;;;;;;;;5070923;28;20616;-80
2022/12/16 02:58:22;;;;;;;19.07;10.60;;;;;;;;;;5071582;28;20205;-78
2022/12/16 03:00:54;;;;;;;17.40;9.83;;;;;;;;;;5070933;28;20237;-78
2022/12/16 03:03:26;;;;;;;17.23;10.30;;;;;;;;;;5071144;28;20197;-78
2022/12/16 03:05:54;;;;;;;18.17;10.40;;;;;;;;;;5071283;28;20225;-78
2022/12/16 03:08:23;;;;;;;18.67;10.97;;;;;;;;;;5070575;28;20205;-77
2022/12/16 03:10:52;;;;;;;17.57;10.97;;;;;;;;;;5070875;28;20264;-77
2022/12/16 03:13:20;;;;;;;19.10;10.90;;;;;;;;;;5071155;28;20225;-78
2022/12/16 03:15:49;;;;;;;19.40;9.70;;;;;;;;;;5070701;28;20751;-77
2022/12/16 03:18:16;;;;;;;20.47;11.57;;;;;;;;;;5071044;28;20228;-77
2022/12/16 03:20:46;;;;;;;20.43;12.40;;;;;;;;;;5071108;28;20237;-77
2022/12/16 03:23:16;;;;;;;25.00;13.03;;;;;;;;;;5070907;28;20208;-78
2022/12/16 03:25:44;;;;;;;24.37;12.33;;;;;;;;;;5070579;28;20306;-78
2022/12/16 03:28:16;;;;;;;18.63;11.53;;;;;;;;;;5070644;28;20204;-77
2022/12/16 03:30:52;;;;;;;14.23;11.03;;;;;;;;;;5071111;28;20240;-77
2022/12/16 03:33:25;;;;;;;19.13;12.87;;;;;;;;;;5070719;28;20220;-77
2022/12/16 03:35:57;;;;;;;16.37;9.90;;;;;;;;;;5070506;28;20278;-77
2022/12/16 03:38:24;;;;;;;15.57;9.67;;;;;;;;;;5070719;28;20218;-77
2022/12/16 03:40:52;;;;;;;19.90;11.67;;;;;;;;;;5070449;28;20233;-77
2022/12/16 03:43:19;;;;;;;14.47;9.07;;;;;;;;;;5070883;28;20704;-77
2022/12/16 03:45:46;;;;;;;14.93;9.60;;;;;;;;;;5070501;28;20721;-77
2022/12/16 03:48:16;;;;;;;17.30;10.87;;;;;;;;;;5070645;28;20209;-77
2022/12/16 03:50:43;;;;;;;21.37;11.33;;;;;;;;;;5070496;28;20260;-77
2022/12/16 03:53:11;;;;;;;20.00;11.50;;;;;;;;;;5071010;28;20225;-77
2022/12/16 03:55:38;;;;;;;15.30;10.60;;;;;;;;;;5070317;28;20609;-77
2022/12/16 03:58:06;;;;;;;18.00;11.03;;;;;;;;;;5070256;28;20232;-77
2022/12/16 04:00:33;;;;;;;16.87;11.13;;;;;;;;;;5070289;28;20291;-77
2022/12/16 04:03:00;;;;;;;18.83;10.53;;;;;;;;;;5071355;28;20201;-77
2022/12/16 04:05:27;;;;;;;20.53;10.83;;;;;;;;;;5074532;28;20221;-77
2022/12/16 04:07:54;;;;;;;15.97;11.03;;;;;;;;;;5074209;28;20217;-78
2022/12/16 04:24:20;;;;;;;15.67;9.33;;;;;;;;;;4996017;28;20347;-77
2022/12/16 04:30:17;;;;;;;15.33;9.70;;;;;;;;;;5034182;28;20578;-78
2022/12/16 04:32:20;;;;;;;14.90;10.20;;;;;;;;;;5045793;28;20313;-78
2022/12/16 04:34:46;;;;;;;19.43;10.70;;;;;;;;;;5054364;28;20241;-78
